Terminal Aerodrome Forecast
Issued by NWS

Home | Current Version | Previous Version | Graphics & Text | Print | Product List | Glossary On
Versions: 1 2 3 4 5 6 7 8 9 10 11 12 13 14 15 16 17 18 19 20 21 22 23 24 25 26 27 28 29
000
FTUS43 KLSX 021100
TAFSUS
TAF
KSUS 021132Z 0212/0312 08007KT 6SM -SHRA VCTS BKN035CB
     FM021500 18008KT P6SM BKN050
     FM022300 18010KT 6SM -SHRA VCTS BKN040CB
      TEMPO 0223/0302 3SM -TSRA BR SCT015 OVC030CB
     FM030300 25007KT 5SM BR BKN015
     FM030900 30012G22KT 5SM BR OVC007=

USA.gov is the U.S. government's official web portal to all federal, state and local government web resources and services.